createdAt,value
2017-11-10T00:00:39.173Z,62.80
2017-11-10T00:01:39.155Z,69.30
2017-11-10T00:02:39.138Z,63.70
2017-11-10T00:03:39.129Z,61.90
2017-11-10T00:04:39.097Z,59.80
2017-11-10T00:05:39.083Z,59.10
2017-11-10T00:06:39.064Z,62.70
2017-11-10T00:07:39.044Z,63.60
2017-11-10T00:08:39.031Z,64.00
2017-11-10T00:09:39.005Z,60.90
2017-11-10T00:10:38.991Z,60.10
2017-11-10T00:11:38.967Z,53.90
2017-11-10T00:12:38.949Z,58.30
2017-11-10T00:13:38.930Z,56.00
2017-11-10T00:14:38.912Z,56.00
2017-11-10T00:15:38.894Z,57.90
2017-11-10T00:16:38.885Z,57.40
2017-11-10T00:17:38.863Z,55.70
2017-11-10T00:18:38.838Z,53.40
2017-11-10T00:19:38.831Z,53.40
2017-11-10T00:20:38.799Z,55.10
2017-11-10T00:21:38.783Z,49.80
2017-11-10T00:22:38.764Z,53.00
2017-11-10T00:23:38.744Z,51.50
2017-11-10T00:24:38.730Z,50.10
2017-11-10T00:25:38.715Z,50.70
2017-11-10T00:26:38.691Z,52.70
2017-11-10T00:27:38.772Z,51.40
2017-11-10T00:28:38.648Z,47.20
2017-11-10T00:29:38.633Z,48.30
2017-11-10T00:30:38.615Z,49.70
2017-11-10T00:31:38.596Z,47.60
2017-11-10T00:32:38.573Z,47.00
2017-11-10T00:33:38.661Z,50.50
2017-11-10T00:34:38.533Z,50.80
2017-11-10T00:35:38.511Z,47.70
2017-11-10T00:36:38.495Z,50.30
2017-11-10T00:37:38.474Z,45.50
2017-11-10T00:38:38.484Z,45.90
2017-11-10T00:39:38.450Z,46.10
2017-11-10T00:40:38.421Z,43.30
2017-11-10T00:41:38.398Z,47.90
2017-11-10T00:42:38.384Z,45.70
2017-11-10T00:43:38.365Z,43.80
2017-11-10T00:44:40.932Z,46.40
2017-11-10T00:45:38.331Z,47.50
2017-11-10T00:46:38.324Z,47.10
2017-11-10T00:47:38.290Z,48.30
2017-11-10T00:48:38.277Z,47.10
2017-11-10T00:49:38.255Z,46.10
2017-11-10T00:50:38.236Z,46.10
2017-11-10T00:51:38.221Z,45.40
2017-11-10T00:52:38.204Z,45.90
2017-11-10T00:53:38.185Z,46.20
2017-11-10T00:54:38.172Z,48.30
2017-11-10T00:55:38.152Z,46.30
2017-11-10T00:56:38.125Z,45.60
2017-11-10T00:57:38.149Z,44.60
2017-11-10T00:58:38.113Z,46.90
2017-11-10T00:59:38.080Z,45.20
2017-11-10T01:00:38.059Z,46.80
2017-11-10T01:01:38.181Z,48.10
2017-11-10T01:02:38.022Z,46.20
2017-11-10T01:03:38.001Z,48.10
2017-11-10T01:04:37.980Z,48.80
2017-11-10T01:05:37.957Z,47.80
2017-11-10T01:06:37.943Z,48.60
2017-11-10T01:07:37.919Z,45.70
2017-11-10T01:08:37.915Z,49.90
2017-11-10T01:09:37.889Z,48.90
2017-11-10T01:10:37.864Z,47.20
2017-11-10T01:11:37.849Z,45.30
2017-11-10T01:12:37.830Z,53.90
2017-11-10T01:13:37.813Z,55.60
2017-11-10T01:14:37.791Z,47.80
2017-11-10T01:15:37.777Z,52.10
2017-11-10T01:16:37.756Z,50.70
2017-11-10T01:17:37.738Z,51.40
2017-11-10T01:18:37.717Z,53.90
2017-11-10T01:19:37.706Z,50.50
2017-11-10T01:20:37.681Z,52.10
2017-11-10T01:21:37.682Z,53.80
2017-11-10T01:22:37.642Z,56.60
2017-11-10T01:23:37.627Z,56.30
2017-11-10T01:24:37.606Z,55.00
2017-11-10T01:25:37.589Z,57.50
2017-11-10T01:26:37.565Z,58.80
2017-11-10T01:27:37.637Z,58.20
2017-11-10T01:28:37.531Z,61.60
2017-11-10T01:29:37.515Z,64.30
2017-11-10T01:30:37.493Z,66.40
2017-11-10T01:31:37.478Z,72.30
2017-11-10T01:32:37.457Z,64.00
2017-11-10T01:33:37.437Z,69.20
2017-11-10T01:34:37.415Z,81.10
2017-11-10T01:35:37.405Z,76.90
2017-11-10T01:36:37.383Z,77.10
2017-11-10T01:37:37.364Z,80.80
2017-11-10T01:38:37.349Z,74.30
2017-11-10T01:39:37.334Z,81.90
2017-11-10T01:40:37.331Z,84.70
2017-11-10T01:41:37.290Z,76.20
2017-11-10T01:42:37.271Z,86.60
2017-11-10T01:43:37.266Z,84.50
2017-11-10T01:44:37.243Z,84.60
2017-11-10T01:45:37.222Z,86.80
2017-11-10T01:46:37.193Z,87.30
2017-11-10T01:47:37.184Z,91.90
2017-11-10T01:48:37.300Z,87.10
2017-11-10T01:49:37.144Z,90.60
2017-11-10T01:50:37.122Z,93.90
2017-11-10T01:51:37.105Z,87.60
2017-11-10T01:52:37.088Z,88.90
2017-11-10T01:53:37.062Z,90.20
2017-11-10T01:54:37.046Z,91.20
2017-11-10T01:55:37.032Z,93.70
2017-11-10T01:56:37.012Z,87.80
2017-11-10T01:57:36.998Z,85.70
2017-11-10T01:58:36.976Z,87.90
2017-11-10T01:59:36.959Z,92.90
2017-11-10T02:00:36.937Z,88.40
2017-11-10T02:01:36.933Z,89.00
2017-11-10T02:02:36.895Z,83.10
2017-11-10T02:03:36.883Z,87.50
2017-11-10T02:04:36.861Z,85.80
2017-11-10T02:05:36.848Z,88.30
2017-11-10T02:06:36.827Z,83.10
2017-11-10T02:07:36.810Z,82.60
2017-11-10T02:08:36.793Z,84.50
2017-11-10T02:09:36.768Z,94.50
2017-11-10T02:10:36.762Z,84.90
2017-11-10T02:11:36.738Z,83.40
2017-11-10T02:12:36.713Z,86.10
2017-11-10T02:13:36.697Z,92.20
2017-11-10T02:14:36.677Z,84.30
2017-11-10T02:15:36.659Z,84.10
2017-11-10T02:16:36.638Z,89.00
2017-11-10T02:17:36.624Z,80.50
2017-11-10T02:18:36.604Z,82.60
2017-11-10T02:19:36.585Z,89.50
2017-11-10T02:20:36.566Z,85.20
2017-11-10T02:21:36.552Z,86.60
2017-11-10T02:22:36.530Z,85.90
2017-11-10T02:23:36.509Z,92.10
2017-11-10T02:24:36.492Z,87.30
2017-11-10T02:25:36.473Z,94.20
2017-11-10T02:26:36.448Z,93.80
2017-11-10T02:27:36.446Z,90.70
2017-11-10T02:28:36.415Z,96.50
2017-11-10T02:29:36.402Z,88.90
2017-11-10T02:30:36.375Z,98.80
2017-11-10T02:31:36.359Z,93.00
2017-11-10T02:32:36.349Z,89.40
2017-11-10T02:33:36.349Z,97.90
2017-11-10T02:34:36.316Z,104.70
2017-11-10T02:35:36.285Z,107.40
2017-11-10T02:36:36.279Z,115.90
2017-11-10T02:37:36.250Z,103.90
2017-11-10T02:38:36.241Z,109.90
2017-11-10T02:39:36.215Z,109.20
2017-11-10T02:40:36.192Z,108.30
2017-11-10T02:41:36.179Z,110.00
2017-11-10T02:42:36.158Z,108.20
2017-11-10T02:43:36.134Z,117.50
2017-11-10T02:44:36.118Z,117.40
2017-11-10T02:45:36.101Z,120.20
2017-11-10T02:46:36.077Z,117.20
2017-11-10T02:47:36.059Z,120.00
2017-11-10T02:48:36.045Z,117.10
2017-11-10T02:49:36.027Z,124.30
2017-11-10T02:50:36.008Z,127.30
2017-11-10T02:51:35.991Z,124.90
2017-11-10T02:52:35.971Z,123.70
2017-11-10T02:53:35.949Z,134.70
2017-11-10T02:54:35.934Z,128.10
2017-11-10T02:55:35.917Z,133.50
2017-11-10T02:56:35.896Z,125.80
2017-11-10T02:57:35.894Z,131.10
2017-11-10T02:58:35.862Z,122.10
2017-11-10T02:59:35.838Z,133.90
2017-11-10T03:00:35.823Z,134.60
2017-11-10T03:01:35.805Z,129.70
2017-11-10T03:02:35.786Z,124.70
2017-11-10T03:03:35.767Z,139.60
2017-11-10T03:04:35.747Z,130.80
2017-11-10T03:05:35.728Z,135.50
2017-11-10T03:06:35.704Z,126.30
2017-11-10T03:07:35.694Z,136.10
2017-11-10T03:08:35.673Z,142.40
2017-11-10T03:09:35.654Z,149.10
2017-11-10T03:10:35.633Z,147.10
2017-11-10T03:11:35.623Z,148.70
2017-11-10T03:12:35.598Z,139.90
2017-11-10T03:13:35.578Z,153.00
2017-11-10T03:14:35.567Z,151.00
2017-11-10T03:15:35.553Z,162.00
2017-11-10T03:16:35.522Z,159.50
2017-11-10T03:17:35.501Z,156.80
2017-11-10T03:18:35.490Z,155.00
2017-11-10T03:19:35.470Z,160.90
2017-11-10T03:20:35.446Z,168.50
2017-11-10T03:21:35.432Z,168.40
2017-11-10T03:22:35.412Z,154.50
2017-11-10T03:23:35.392Z,169.70
2017-11-10T03:24:35.372Z,155.90
2017-11-10T03:25:35.365Z,163.30
2017-11-10T03:26:35.338Z,164.80
2017-11-10T03:27:35.379Z,163.40
2017-11-10T03:28:35.305Z,162.80
2017-11-10T03:29:35.280Z,153.90
2017-11-10T03:30:35.268Z,173.60
2017-11-10T03:31:35.245Z,170.40
2017-11-10T03:32:35.225Z,181.60
2017-11-10T03:33:35.207Z,173.90
2017-11-10T03:34:35.188Z,171.80
2017-11-10T03:35:35.169Z,165.90
2017-11-10T03:36:35.151Z,167.50
2017-11-10T03:37:35.132Z,176.10
2017-11-10T03:38:35.112Z,168.70
2017-11-10T03:39:35.103Z,155.60
2017-11-10T03:40:35.080Z,177.30
2017-11-10T03:41:35.063Z,177.00
2017-11-10T03:42:35.041Z,179.70
2017-11-10T03:43:35.023Z,182.80
2017-11-10T03:44:35.002Z,177.20
2017-11-10T03:45:34.983Z,173.30
2017-11-10T03:46:34.969Z,177.20
2017-11-10T03:47:34.941Z,171.80
2017-11-10T03:48:34.928Z,167.60
2017-11-10T03:49:34.910Z,158.70
2017-11-10T03:50:34.891Z,165.30
2017-11-10T03:51:34.874Z,167.50
2017-11-10T03:52:34.855Z,177.90
2017-11-10T03:53:34.837Z,175.10
2017-11-10T03:54:34.818Z,164.90
2017-11-10T03:55:34.793Z,181.90
2017-11-10T03:56:34.780Z,176.90
2017-11-10T03:57:34.766Z,182.60
2017-11-10T03:58:34.742Z,167.00
2017-11-10T03:59:34.724Z,170.80
2017-11-10T04:00:34.706Z,168.40
2017-11-10T04:01:34.686Z,174.30
2017-11-10T04:02:34.661Z,174.80
2017-11-10T04:03:34.652Z,171.40
2017-11-10T04:04:34.641Z,168.30
2017-11-10T04:05:34.623Z,162.00
2017-11-10T04:06:34.597Z,165.90
2017-11-10T04:07:34.581Z,170.90
2017-11-10T04:08:34.561Z,158.80
2017-11-10T04:09:34.534Z,167.90
2017-11-10T04:10:34.521Z,163.30
2017-11-10T04:11:34.518Z,179.40
2017-11-10T04:12:34.483Z,174.80
2017-11-10T04:13:34.469Z,179.00
2017-11-10T04:14:34.446Z,174.90
2017-11-10T04:15:34.427Z,182.80
2017-11-10T04:16:34.409Z,193.00
2017-11-10T04:17:34.389Z,195.80
2017-11-10T04:18:34.371Z,186.10
2017-11-10T04:19:34.356Z,177.40
2017-11-10T04:20:34.336Z,163.40
2017-11-10T04:21:34.316Z,174.90
2017-11-10T04:22:34.319Z,169.40
2017-11-10T04:23:34.282Z,159.40
2017-11-10T04:24:34.262Z,158.90
2017-11-10T04:25:34.241Z,160.30
2017-11-10T04:26:34.223Z,162.60
2017-11-10T04:27:34.209Z,156.30
2017-11-10T04:28:34.186Z,159.90
2017-11-10T04:29:34.170Z,165.10
2017-11-10T04:30:34.151Z,158.20
2017-11-10T04:31:34.143Z,163.60
2017-11-10T04:32:34.116Z,162.10
2017-11-10T04:33:34.095Z,156.10
2017-11-10T04:34:34.081Z,169.10
2017-11-10T04:35:34.062Z,151.60
2017-11-10T04:36:34.039Z,163.80
2017-11-10T04:37:34.021Z,167.70
2017-11-10T04:38:34.008Z,169.20
2017-11-10T04:39:33.999Z,163.50
2017-11-10T04:40:33.966Z,166.70
2017-11-10T04:41:33.950Z,163.00
2017-11-10T04:42:33.931Z,163.20
2017-11-10T04:43:33.915Z,160.70
2017-11-10T04:44:33.917Z,172.90
2017-11-10T04:45:33.887Z,189.30
2017-11-10T04:46:33.855Z,167.60
2017-11-10T04:47:33.838Z,179.10
2017-11-10T04:48:33.819Z,181.30
2017-11-10T04:49:33.806Z,184.50
2017-11-10T04:50:33.790Z,162.40
2017-11-10T04:51:33.761Z,164.70
2017-11-10T04:52:33.759Z,172.00
2017-11-10T04:53:33.724Z,175.80
2017-11-10T04:54:33.707Z,184.50
2017-11-10T04:55:33.691Z,178.10
2017-11-10T04:56:33.704Z,181.00
2017-11-10T04:57:33.656Z,186.10
2017-11-10T04:58:33.633Z,185.10
2017-11-10T04:59:33.617Z,184.90
2017-11-10T05:00:33.595Z,178.20
2017-11-10T05:01:33.577Z,185.90
2017-11-10T05:02:33.558Z,176.60
2017-11-10T05:03:33.543Z,185.50
2017-11-10T05:04:33.525Z,171.20
2017-11-10T05:05:33.511Z,176.40
2017-11-10T05:06:33.485Z,189.10
2017-11-10T05:07:33.474Z,198.00
2017-11-10T05:08:33.444Z,181.70
2017-11-10T05:09:33.432Z,179.00
2017-11-10T05:10:33.412Z,192.50
2017-11-10T05:11:33.399Z,183.10
2017-11-10T05:12:33.384Z,174.70
2017-11-10T05:13:33.365Z,162.60
2017-11-10T05:14:33.346Z,174.40
2017-11-10T05:15:33.327Z,190.50
2017-11-10T05:16:33.323Z,177.20
2017-11-10T05:17:33.308Z,193.40
2017-11-10T05:18:33.282Z,190.40
2017-11-10T05:19:33.267Z,195.10
2017-11-10T05:20:33.235Z,180.40
2017-11-10T05:21:33.237Z,189.60
2017-11-10T05:22:33.196Z,185.80
2017-11-10T05:23:33.179Z,188.30
2017-11-10T05:24:33.181Z,188.30
2017-11-10T05:25:33.137Z,183.40
2017-11-10T05:26:33.129Z,180.20
2017-11-10T05:27:33.145Z,191.00
2017-11-10T05:28:33.144Z,180.50
2017-11-10T05:29:33.143Z,188.60
2017-11-10T05:30:33.045Z,171.20
2017-11-10T05:31:33.036Z,180.60
2017-11-10T05:32:33.014Z,183.10
2017-11-10T05:33:33.007Z,184.10
2017-11-10T05:34:33.009Z,183.80
2017-11-10T05:35:32.957Z,191.40
2017-11-10T05:36:32.955Z,194.40
2017-11-10T05:37:32.928Z,214.60
2017-11-10T05:38:32.902Z,211.30
2017-11-10T05:39:32.881Z,198.00
2017-11-10T05:40:32.872Z,182.10
2017-11-10T05:41:32.863Z,192.00
2017-11-10T05:42:32.832Z,176.70
2017-11-10T05:43:32.837Z,185.30
2017-11-10T05:44:32.800Z,202.10
2017-11-10T05:45:32.809Z,193.30
2017-11-10T05:46:32.769Z,205.30
2017-11-10T05:47:32.747Z,194.40
2017-11-10T05:48:32.731Z,200.00
2017-11-10T05:49:32.732Z,194.80
2017-11-10T05:50:32.700Z,199.30
2017-11-10T05:51:32.665Z,194.20
2017-11-10T05:52:32.676Z,207.50
2017-11-10T05:53:32.627Z,203.00
2017-11-10T05:54:32.655Z,209.90
2017-11-10T05:55:32.661Z,193.70
2017-11-10T05:56:32.583Z,189.50
2017-11-10T05:57:32.599Z,184.70
2017-11-10T05:58:32.545Z,193.40
2017-11-10T05:59:32.541Z,190.30
2017-11-10T06:00:32.508Z,185.30
2017-11-10T06:01:32.491Z,184.80
2017-11-10T06:02:32.496Z,187.50
2017-11-10T06:03:32.445Z,184.10
2017-11-10T06:04:32.433Z,180.70
2017-11-10T06:05:32.417Z,169.00
2017-11-10T06:06:32.392Z,185.00
2017-11-10T06:07:32.391Z,179.10
2017-11-10T06:08:32.385Z,178.90
2017-11-10T06:09:32.342Z,180.30
2017-11-10T06:10:32.368Z,178.30
2017-11-10T06:11:32.304Z,183.70
2017-11-10T06:12:32.323Z,170.80
2017-11-10T06:13:32.278Z,179.00
2017-11-10T06:14:32.269Z,175.70
2017-11-10T06:15:32.244Z,165.70
2017-11-10T06:16:32.229Z,177.50
2017-11-10T06:17:32.197Z,171.40
2017-11-10T06:18:32.182Z,181.30
2017-11-10T06:19:32.187Z,162.90
2017-11-10T06:20:32.144Z,168.30
2017-11-10T06:21:32.133Z,180.80
2017-11-10T06:22:32.104Z,183.60
2017-11-10T06:23:32.085Z,176.90
2017-11-10T06:24:32.088Z,166.80
2017-11-10T06:25:32.143Z,169.20
2017-11-10T06:26:32.078Z,177.20
2017-11-10T06:27:32.051Z,170.30
2017-11-10T06:28:32.004Z,180.80
2017-11-10T06:29:31.973Z,168.90
2017-11-10T06:30:32.018Z,180.80
2017-11-10T06:31:31.954Z,178.70
2017-11-10T06:32:31.927Z,182.40
2017-11-10T06:33:31.913Z,178.60
2017-11-10T06:34:31.919Z,177.40
2017-11-10T06:35:31.874Z,167.20
2017-11-10T06:36:31.854Z,165.30
2017-11-10T06:37:31.900Z,171.90
2017-11-10T06:38:31.822Z,160.50
2017-11-10T06:39:31.807Z,171.50
2017-11-10T06:40:31.793Z,162.80
2017-11-10T06:41:31.773Z,168.00
2017-11-10T06:42:31.758Z,163.00
2017-11-10T06:43:31.719Z,165.60
2017-11-10T06:44:31.709Z,166.40
2017-11-10T06:45:31.714Z,175.70
2017-11-10T06:46:31.688Z,166.10
2017-11-10T06:47:31.657Z,167.00
2017-11-10T06:48:31.640Z,169.70
2017-11-10T06:49:31.625Z,174.20
2017-11-10T06:50:31.615Z,164.30
2017-11-10T06:51:31.585Z,172.90
2017-11-10T06:52:31.577Z,175.50
2017-11-10T06:53:31.570Z,170.90
2017-11-10T06:54:31.550Z,168.50
2017-11-10T06:55:31.529Z,168.90
2017-11-10T06:56:31.513Z,165.60
2017-11-10T06:57:31.514Z,163.40
2017-11-10T06:58:31.464Z,159.00
2017-11-10T06:59:31.477Z,154.40
2017-11-10T07:00:31.434Z,170.70
2017-11-10T07:01:31.448Z,145.80
2017-11-10T07:02:31.388Z,155.80
2017-11-10T07:03:31.403Z,160.70
2017-11-10T07:04:31.341Z,162.40
2017-11-10T07:05:31.464Z,159.70
2017-11-10T07:06:31.308Z,167.70
2017-11-10T07:07:31.304Z,170.90
2017-11-10T07:08:31.269Z,159.60
2017-11-10T07:09:31.271Z,155.10
2017-11-10T07:10:31.234Z,166.30
2017-11-10T07:11:31.229Z,155.50
2017-11-10T07:12:31.204Z,158.60
2017-11-10T07:13:31.217Z,149.30
2017-11-10T07:14:31.200Z,142.70
2017-11-10T07:15:31.159Z,153.30
2017-11-10T07:16:31.138Z,159.20
2017-11-10T07:17:31.124Z,142.90
2017-11-10T07:18:32.076Z,149.10
2017-11-10T07:19:31.124Z,152.40
2017-11-10T07:20:31.104Z,149.00
2017-11-10T07:21:31.059Z,153.70
2017-11-10T07:22:31.072Z,146.80
2017-11-10T07:23:31.001Z,147.60
2017-11-10T07:24:30.986Z,136.40
2017-11-10T07:25:30.981Z,135.90
2017-11-10T07:26:30.952Z,135.00
2017-11-10T07:27:30.935Z,135.70
2017-11-10T07:28:30.934Z,149.30
2017-11-10T07:29:30.894Z,135.60
2017-11-10T07:30:30.895Z,144.20
2017-11-10T07:31:30.867Z,133.00
2017-11-10T07:32:30.837Z,133.10
2017-11-10T07:33:30.844Z,136.60
2017-11-10T07:34:30.805Z,134.40
2017-11-10T07:35:30.808Z,138.00
2017-11-10T07:36:30.780Z,131.10
2017-11-10T07:37:30.749Z,133.10
2017-11-10T07:38:30.736Z,140.60
2017-11-10T07:39:30.733Z,118.00
2017-11-10T07:40:30.716Z,130.00
2017-11-10T07:41:30.696Z,134.00
2017-11-10T07:42:30.664Z,137.60
2017-11-10T07:43:30.666Z,141.60
2017-11-10T07:44:30.661Z,136.30
2017-11-10T07:45:30.621Z,132.20
2017-11-10T07:46:30.604Z,135.10
2017-11-10T07:47:30.590Z,128.40
2017-11-10T07:48:30.570Z,138.50
2017-11-10T07:49:30.535Z,141.70
2017-11-10T07:50:30.531Z,132.80
2017-11-10T07:51:30.512Z,139.20
2017-11-10T07:52:30.501Z,133.00
2017-11-10T07:53:30.471Z,147.70
2017-11-10T07:54:30.442Z,141.40
2017-11-10T07:55:30.430Z,137.90
2017-11-10T07:56:30.420Z,133.10
2017-11-10T07:57:30.476Z,142.70
2017-11-10T07:58:30.371Z,130.80
2017-11-10T07:59:30.365Z,130.50
2017-11-10T08:00:30.370Z,129.20
2017-11-10T08:01:30.317Z,124.00
2017-11-10T08:02:30.307Z,123.90
2017-11-10T08:03:30.290Z,134.00
2017-11-10T08:04:30.269Z,121.60
2017-11-10T08:05:30.252Z,117.80
2017-11-10T08:06:30.250Z,122.30
2017-11-10T08:07:30.209Z,124.00
2017-11-10T08:08:30.207Z,126.90
2017-11-10T08:09:30.180Z,109.60
2017-11-10T08:10:30.156Z,121.80
2017-11-10T08:11:30.141Z,112.10
2017-11-10T08:12:30.156Z,112.50
2017-11-10T08:13:30.122Z,107.30
2017-11-10T08:14:30.082Z,103.00
2017-11-10T08:15:30.149Z,109.50
2017-11-10T08:16:30.081Z,108.50
2017-11-10T08:17:30.072Z,103.50
2017-11-10T08:18:30.116Z,105.70
2017-11-10T08:19:30.057Z,108.40
2017-11-10T08:20:30.063Z,100.30
2017-11-10T08:21:29.964Z,107.80
2017-11-10T08:22:29.937Z,111.30
2017-11-10T08:23:29.993Z,103.50
2017-11-10T08:24:29.940Z,96.40
2017-11-10T08:25:29.892Z,92.60
2017-11-10T08:26:29.898Z,100.70
2017-11-10T08:27:29.877Z,99.90
2017-11-10T08:28:29.877Z,104.50
2017-11-10T08:29:29.837Z,96.60
2017-11-10T08:30:29.809Z,101.00
2017-11-10T08:31:29.795Z,101.20
2017-11-10T08:32:29.767Z,98.10
2017-11-10T08:33:29.754Z,108.30
2017-11-10T08:34:29.766Z,96.10
2017-11-10T08:35:29.715Z,105.20
2017-11-10T08:36:29.711Z,104.00
2017-11-10T08:37:29.740Z,97.40
2017-11-10T08:38:29.668Z,99.70
2017-11-10T08:39:29.756Z,99.00
2017-11-10T08:40:29.630Z,99.60
2017-11-10T08:41:29.717Z,95.00
2017-11-10T08:42:29.818Z,101.70
2017-11-10T08:43:29.575Z,103.00
2017-11-10T08:44:29.643Z,109.30
2017-11-10T08:45:29.563Z,105.70
2017-11-10T08:46:29.513Z,101.40
2017-11-10T08:47:29.552Z,98.70
2017-11-10T08:48:29.595Z,102.70
2017-11-10T08:49:29.497Z,93.60
2017-11-10T08:50:29.481Z,89.30
2017-11-10T08:51:29.459Z,99.20
2017-11-10T08:52:29.473Z,98.90
2017-11-10T08:53:29.983Z,94.90
2017-11-10T08:54:29.388Z,102.50
2017-11-10T08:55:29.484Z,92.70
2017-11-10T08:56:29.445Z,85.20
2017-11-10T08:57:29.328Z,95.40
2017-11-10T08:58:29.415Z,92.80
2017-11-10T08:59:29.353Z,86.70
2017-11-10T09:00:29.259Z,85.60
2017-11-10T09:01:29.309Z,92.40
2017-11-10T09:02:29.337Z,85.80
2017-11-10T09:03:29.239Z,92.20
2017-11-10T09:04:29.274Z,80.60
2017-11-10T09:05:29.255Z,82.10
2017-11-10T09:06:30.040Z,77.60
2017-11-10T09:07:29.134Z,80.30
2017-11-10T09:08:29.220Z,76.80
2017-11-10T09:09:30.026Z,73.30
2017-11-10T09:10:29.121Z,75.20
2017-11-10T09:11:29.104Z,67.30
2017-11-10T09:12:29.115Z,66.80
2017-11-10T09:13:29.151Z,70.00
2017-11-10T09:14:29.068Z,74.20
2017-11-10T09:15:29.124Z,77.80
2017-11-10T09:16:29.080Z,69.00
2017-11-10T09:17:29.052Z,69.40
2017-11-10T09:18:28.994Z,70.30
2017-11-10T09:19:28.978Z,71.40
2017-11-10T09:20:29.076Z,73.40
2017-11-10T09:21:28.985Z,69.30
2017-11-10T09:22:28.914Z,70.90
2017-11-10T09:23:28.916Z,72.30
2017-11-10T09:24:28.912Z,68.50
2017-11-10T09:25:28.963Z,63.70
2017-11-10T09:26:28.893Z,64.50
2017-11-10T09:27:28.897Z,58.60
2017-11-10T09:28:28.800Z,63.10
2017-11-10T09:29:28.817Z,54.50
2017-11-10T09:30:28.820Z,56.30
2017-11-10T09:31:28.787Z,53.70
2017-11-10T09:32:28.764Z,50.70
2017-11-10T09:33:28.738Z,53.70
2017-11-10T09:34:29.532Z,53.40
2017-11-10T09:35:28.685Z,55.10
2017-11-10T09:36:28.645Z,57.00
2017-11-10T09:37:28.649Z,57.50
2017-11-10T09:38:28.651Z,50.10
2017-11-10T09:39:28.616Z,54.50
2017-11-10T09:40:28.553Z,53.90
2017-11-10T09:41:28.608Z,47.80
2017-11-10T09:42:28.557Z,48.60
2017-11-10T09:43:28.531Z,47.30
2017-11-10T09:44:28.508Z,48.60
2017-11-10T09:45:28.539Z,46.60
2017-11-10T09:46:28.483Z,47.10
2017-11-10T09:47:28.476Z,48.70
2017-11-10T09:48:28.440Z,47.90
2017-11-10T09:49:28.546Z,50.00
2017-11-10T09:50:28.426Z,46.40
2017-11-10T09:51:28.428Z,51.00
2017-11-10T09:52:28.373Z,46.00
2017-11-10T09:53:28.372Z,47.60
2017-11-10T09:54:28.330Z,47.50
2017-11-10T09:55:28.397Z,52.10
2017-11-10T09:56:28.282Z,52.00
2017-11-10T09:57:29.038Z,54.20
2017-11-10T09:58:28.349Z,55.50
2017-11-10T09:59:28.305Z,53.60
2017-11-10T10:00:28.229Z,53.50
2017-11-10T10:01:28.300Z,63.50
2017-11-10T10:02:28.344Z,68.20
2017-11-10T10:03:28.216Z,61.20
2017-11-10T10:04:28.391Z,76.90
2017-11-10T10:05:28.159Z,54.30
2017-11-10T10:06:28.286Z,61.80
2017-11-10T10:07:28.144Z,61.90
2017-11-10T10:08:28.094Z,74.70
2017-11-10T10:09:28.166Z,86.10
2017-11-10T10:10:28.123Z,78.70
2017-11-10T10:11:28.068Z,78.30
2017-11-10T10:12:28.044Z,71.60
2017-11-10T10:13:28.102Z,71.20
2017-11-10T10:14:27.993Z,82.70
2017-11-10T10:15:27.995Z,69.50
2017-11-10T10:16:27.994Z,68.80
2017-11-10T10:17:28.026Z,66.80
2017-11-10T10:18:27.953Z,69.50
2017-11-10T10:19:27.969Z,80.80
2017-11-10T10:20:27.980Z,68.20
2017-11-10T10:21:27.913Z,72.90
2017-11-10T10:22:27.830Z,66.40
2017-11-10T10:23:27.878Z,67.40
2017-11-10T10:24:28.540Z,72.20
2017-11-10T10:25:27.850Z,75.70
2017-11-10T10:26:27.829Z,70.90
2017-11-10T10:27:27.764Z,72.20
2017-11-10T10:28:27.791Z,72.60
2017-11-10T10:29:27.790Z,67.60
2017-11-10T10:30:27.758Z,67.80
2017-11-10T10:31:27.723Z,71.70
2017-11-10T10:32:27.791Z,67.90
2017-11-10T10:33:28.656Z,72.20
2017-11-10T10:34:27.639Z,65.40
2017-11-10T10:35:27.651Z,65.70
2017-11-10T10:36:27.683Z,66.30
2017-11-10T10:37:27.661Z,63.70
2017-11-10T10:38:27.598Z,67.30
2017-11-10T10:39:27.618Z,63.40
2017-11-10T10:40:27.560Z,67.40
2017-11-10T10:41:27.628Z,66.50
2017-11-10T10:42:27.483Z,65.10
2017-11-10T10:43:27.503Z,65.00
2017-11-10T10:44:27.515Z,73.60
2017-11-10T10:45:27.516Z,71.40
2017-11-10T10:46:27.519Z,63.10
2017-11-10T10:47:28.026Z,68.10
2017-11-10T10:48:27.368Z,69.70
2017-11-10T10:49:27.425Z,66.80
2017-11-10T10:50:27.362Z,69.10
2017-11-10T10:51:27.333Z,59.10
2017-11-10T10:52:27.316Z,65.00
2017-11-10T10:53:27.283Z,64.30
2017-11-10T10:54:27.307Z,64.30
2017-11-10T10:55:27.242Z,64.40
2017-11-10T10:56:27.257Z,69.80
2017-11-10T10:57:27.299Z,63.90
2017-11-10T10:58:27.273Z,66.30
2017-11-10T10:59:27.185Z,62.10
2017-11-10T11:00:27.213Z,68.90
2017-11-10T11:01:27.179Z,60.80
2017-11-10T11:02:27.275Z,64.90
2017-11-10T11:03:27.192Z,67.60
2017-11-10T11:04:27.173Z,68.00
2017-11-10T11:05:27.122Z,70.70
2017-11-10T11:06:27.122Z,72.30
2017-11-10T11:07:27.138Z,64.90
2017-11-10T11:08:27.081Z,67.10
2017-11-10T11:09:26.979Z,75.20
2017-11-10T11:10:26.964Z,68.20
2017-11-10T11:11:26.998Z,69.40
2017-11-10T11:12:27.108Z,69.10
2017-11-10T11:13:27.005Z,75.70
2017-11-10T11:14:26.981Z,64.60
2017-11-10T11:15:26.980Z,66.40
2017-11-10T11:16:26.944Z,73.10
2017-11-10T11:17:26.937Z,83.40
2017-11-10T11:18:26.899Z,77.60
2017-11-10T11:19:26.851Z,72.00
2017-11-10T11:20:26.878Z,69.60
2017-11-10T11:21:26.775Z,68.90
2017-11-10T11:22:26.794Z,77.60
2017-11-10T11:23:26.776Z,68.40
2017-11-10T11:24:26.744Z,67.00
2017-11-10T11:25:26.783Z,81.20
2017-11-10T11:26:26.686Z,73.70
2017-11-10T11:27:26.762Z,69.80
2017-11-10T11:28:27.549Z,71.20
2017-11-10T11:29:27.692Z,84.40
2017-11-10T11:30:28.723Z,72.50
2017-11-10T11:31:26.662Z,78.20
2017-11-10T11:32:26.704Z,85.50
2017-11-10T11:33:26.635Z,73.60
2017-11-10T11:34:26.621Z,89.60
2017-11-10T11:35:26.588Z,94.70
2017-11-10T11:36:26.614Z,89.10
2017-11-10T11:37:26.616Z,86.30
2017-11-10T11:38:27.568Z,68.80
2017-11-10T11:40:26.526Z,95.90
2017-11-10T11:41:26.495Z,99.50
2017-11-10T11:42:26.519Z,89.30
2017-11-10T11:43:26.473Z,87.90
2017-11-10T11:44:26.439Z,79.60
2017-11-10T11:45:26.442Z,60.60
2017-11-10T11:46:26.481Z,63.00
2017-11-10T11:47:27.201Z,59.60
2017-11-10T11:48:27.072Z,57.50
2017-11-10T11:49:26.299Z,58.40
2017-11-10T11:50:26.357Z,59.80
2017-11-10T11:51:26.315Z,65.80
2017-11-10T11:52:26.400Z,58.90
2017-11-10T11:53:26.317Z,56.80
2017-11-10T11:54:26.241Z,62.40
2017-11-10T11:55:26.204Z,63.00
2017-11-10T11:56:26.230Z,66.50
2017-11-10T11:57:26.269Z,64.30
2017-11-10T11:58:26.280Z,62.00
2017-11-10T11:59:26.208Z,62.80
2017-11-10T12:00:26.206Z,68.20
2017-11-10T12:01:26.165Z,76.70
2017-11-10T12:02:26.188Z,76.40
2017-11-10T12:03:26.108Z,70.80
2017-11-10T12:04:26.118Z,68.00
2017-11-10T12:05:26.060Z,62.50
2017-11-10T12:06:26.088Z,61.70
2017-11-10T12:07:26.012Z,68.50
2017-11-10T12:08:26.046Z,67.20
2017-11-10T12:09:25.988Z,58.40
2017-11-10T12:10:25.972Z,64.10
2017-11-10T12:11:25.949Z,54.60
2017-11-10T12:12:25.942Z,64.40
2017-11-10T12:13:25.947Z,66.40
2017-11-10T12:14:25.932Z,69.20
2017-11-10T12:15:25.895Z,64.00
2017-11-10T12:16:25.894Z,65.30
2017-11-10T12:17:25.877Z,66.00
2017-11-10T12:18:25.850Z,59.70
2017-11-10T12:19:25.889Z,62.90
2017-11-10T12:20:25.888Z,62.50
2017-11-10T12:21:25.850Z,70.30
2017-11-10T12:22:25.790Z,66.40
2017-11-10T12:23:25.760Z,64.70
2017-11-10T12:24:25.726Z,59.40
2017-11-10T12:25:25.726Z,58.30
2017-11-10T12:26:25.724Z,63.40
2017-11-10T12:27:25.792Z,63.40
2017-11-10T12:28:25.737Z,82.80
2017-11-10T12:29:25.662Z,97.80
2017-11-10T12:30:25.685Z,75.70
2017-11-10T12:31:25.720Z,78.00
2017-11-10T12:32:25.612Z,79.00
2017-11-10T12:33:25.537Z,80.80
2017-11-10T12:34:25.576Z,75.80
2017-11-10T12:35:25.708Z,74.00
2017-11-10T12:36:25.503Z,70.80
2017-11-10T12:37:25.548Z,58.50
2017-11-10T12:38:25.484Z,60.80
2017-11-10T12:39:25.494Z,58.60
2017-11-10T12:40:25.739Z,57.50
2017-11-10T12:41:25.454Z,57.50